Terminal Aerodrome Forecast
Issued by NWS

Home | Current Version | Previous Version | Text Only | Print | Product List | Glossary On
Versions: 1 2 3 4 5 6 7 8 9 10 11 12 13 14 15 16 17 18 19 20 21 22 23 24 25 26 27 28
080
FTUS46 KSEW 282320
TAFSEA
TAF
KSEA 282320Z 2900/3006 18012G20KT P6SM -RA OVC035
     FM291000 16012KT 4SM RA BR OVC015
     FM291500 22012G22KT P6SM -RA BKN015 OVC030
     FM292000 22012G22KT P6SM VCSH SCT020 BKN040=

USA.gov is the U.S. government's official web portal to all federal, state and local government web resources and services.